Impacts METAR Board
IDs:

KBAZ - New Braunfels Muni, TX, US

Updated at: 0100 UTC 01 Nov 2020
Potential Impact None Slight Moderate High
Time 31/13Z 31/14Z 31/15Z 31/16Z 31/17Z 31/18Z 31/19Z 31/20Z 31/21Z 31/22Z 31/23Z 01/00Z 01/01Z
Temp40 48 59 65 70 73 76 77 78 79 78 69 64
Dewpt32 36 39 41 40 39 39 38 37 37 38 40 40
Altim30.21 30.22 30.24 30.23 30.22 30.19 30.15 30.12 30.10 30.08 30.08 30.09 30.12
VIS10 10 10 10 10 10 10 10 10 10 10 10 10
CIG-- -- -- -- -- -- -- -- -- -- -- -- --
CoverCLRCLRCLRCLRCLRCLRCLRCLRCLRCLRCLRCLRCLR
FltCatVFRVFRVFRVFRVFRVFRVFRVFRVFRVFRVFRVFRVFR
WX--------------------------
WDir31000210200190220160190220200190200
WSpd3 0 0 6 8 7 6 6 5 6 9 5 4
WGst-- -- -- -- -- -- 14 -- -- -- -- -- --
Raw hourly METARs
KBAZ 311251Z 31003KT 10SM CLR 04/00 A3021 RMK AO2 SLP228 T00440000
KBAZ 311351Z 00000KT 10SM CLR 09/02 A3022 RMK AO2 SLP232 T00890022
KBAZ 311451Z 00000KT 10SM CLR 15/04 A3024 RMK AO2 SLP235 T01500039 53010
KBAZ 311551Z 21006KT 10SM CLR 18/05 A3023 RMK AO2 SLP234 T01830050
KBAZ 311651Z 20008KT 10SM CLR 21/04 A3022 RMK AO2 SLP229 T02110044
KBAZ 311751Z 19007KT 10SM CLR 23/04 A3019 RMK AO2 SLP220 T02280039 10233 20039 58015
KBAZ 311851Z 22006G14KT 10SM CLR 24/04 A3015 RMK AO2 SLP207 T02440039
KBAZ 311951Z 16006KT 10SM CLR 25/03 A3012 RMK AO2 SLP195 T02500033
KBAZ 312051Z 19005KT 10SM CLR 26/03 A3010 RMK AO2 SLP189 T02560028 56030
KBAZ 312151Z 22006KT 10SM CLR 26/03 A3008 RMK AO2 SLP183 T02610028
KBAZ 312251Z 20009KT 10SM CLR 26/03 A3008 RMK AO2 SLP183 T02560033
KBAZ 312351Z AUTO 19005KT 10SM CLR 21/04 A3009 RMK AO2 SLP187 T02060044 10261 20206 55002
KBAZ 010051Z AUTO 20004KT 10SM CLR 18/04 A3012 RMK AO2 SLP198 T01780044